Terminal Aerodrome Forecast
Issued by NWS

Home | Current Version | Previous Version | Text Only | Print | Product List | Glossary On
Versions: 1 2 3 4 5 6 7 8 9 10 11 12 13 14 15 16 17 18 19 20 21
000
FTUS46 KPDT 300500
TAFBDN
TAF
KBDN 300521Z 3006/3106 35005KT 1/4SM FG OVC001
      TEMPO 3010/3014 1/2SM -DZ FG VV002
     FM301500 VRB03KT 2SM BR OVC003
     FM301800 36003KT P6SM SCT004
     FM310300 VRB03KT P6SM SCT003=

USA.gov is the U.S. government's official web portal to all federal, state and local government web resources and services.